createdAt,value
2022-09-17T00:01:43.548Z,96581.69
2022-09-17T00:06:46.922Z,96585.88
2022-09-17T00:11:51.830Z,96588.94
2022-09-17T00:16:59.950Z,96594.50
2022-09-17T00:22:05.416Z,96594.78
2022-09-17T00:27:10.373Z,96589.22
2022-09-17T00:32:13.876Z,96599.25
2022-09-17T00:37:17.452Z,96593.38
2022-09-17T00:42:23.408Z,96597.41
2022-09-17T00:47:31.830Z,96593.75
2022-09-17T00:52:41.393Z,96596.75
2022-09-17T00:57:47.546Z,96596.69
2022-09-17T01:02:51.190Z,96592.16
2022-09-17T01:08:03.663Z,96602.75
2022-09-17T01:13:18.497Z,96600.53
2022-09-17T01:18:35.492Z,96606.28
2022-09-17T01:24:12.156Z,96596.22
2022-09-17T01:29:29.693Z,96598.19
2022-09-17T01:34:42.236Z,96594.91
2022-09-17T01:39:53.180Z,96609.41
2022-09-17T01:45:01.648Z,96605.94
2022-09-17T01:50:12.667Z,96611.88
2022-09-17T01:55:19.988Z,96606.44
2022-09-17T02:00:24.984Z,96594.75
2022-09-17T02:05:33.758Z,96600.06
2022-09-17T02:10:42.011Z,96598.47
2022-09-17T02:15:53.540Z,96601.59
2022-09-17T02:21:08.451Z,96602.97
2022-09-17T02:26:16.327Z,96610.06
2022-09-17T02:31:19.988Z,96607.63
2022-09-17T02:36:25.539Z,96600.25
2022-09-17T02:41:41.726Z,96603.81
2022-09-17T02:47:08.060Z,96599.78
2022-09-17T02:52:20.392Z,96598.41
2022-09-17T02:57:30.997Z,96595.59
2022-09-17T03:02:39.561Z,96603.13
2022-09-17T03:07:44.642Z,96597.88
2022-09-17T03:12:48.378Z,96597.84
2022-09-17T03:17:53.492Z,96596.19
2022-09-17T03:22:58.612Z,96593.53
2022-09-17T03:28:02.500Z,96608.84
2022-09-17T03:33:06.130Z,96606.19
2022-09-17T03:38:11.194Z,96614.38
2022-09-17T03:43:14.772Z,96615.66
2022-09-17T03:48:18.616Z,96619.97
2022-09-17T03:53:23.670Z,96617.34
2022-09-17T03:58:27.648Z,96625.44
2022-09-17T04:03:32.089Z,96631.09
2022-09-17T04:08:37.116Z,96625.97
2022-09-17T04:13:40.676Z,96629.69
2022-09-17T04:18:44.265Z,96632.59
2022-09-17T04:23:49.322Z,96638.16
2022-09-17T04:28:52.821Z,96642.09
2022-09-17T04:33:56.525Z,96643.31
2022-09-17T04:39:01.638Z,96652.09
2022-09-17T04:44:05.308Z,96649.06
2022-09-17T04:49:08.994Z,96650.44
2022-09-17T04:54:14.706Z,96657.41
2022-09-17T04:59:18.567Z,96657.84
2022-09-17T05:04:22.132Z,96656.69
2022-09-17T05:09:27.088Z,96660.88
2022-09-17T05:14:30.799Z,96661.59
2022-09-17T05:19:34.372Z,96661.97
2022-09-17T05:24:39.910Z,96676.06
2022-09-17T05:29:43.561Z,96678.72
2022-09-17T05:34:47.217Z,96672.63
2022-09-17T05:39:52.555Z,96682.81
2022-09-17T05:44:56.244Z,96676.78
2022-09-17T05:50:01.179Z,96692.56
2022-09-17T05:55:07.176Z,96676.34
2022-09-17T06:00:12.128Z,96678.69
2022-09-17T06:05:19.708Z,96691.91
2022-09-17T06:10:24.699Z,96714.28
2022-09-17T06:15:29.105Z,96722.22
2022-09-17T06:20:32.712Z,96715.66
2022-09-17T06:25:37.784Z,96721.41
2022-09-17T06:30:41.379Z,96724.47
2022-09-17T06:35:45.424Z,96723.38
2022-09-17T06:40:53.535Z,96737.38
2022-09-17T06:45:59.053Z,96737.75
2022-09-17T06:51:04.454Z,96726.19
2022-09-17T06:56:10.397Z,96744.41
2022-09-17T07:01:15.212Z,96745.59
2022-09-17T07:06:18.815Z,96746.97
2022-09-17T07:11:24.026Z,96742.53
2022-09-17T07:16:28.257Z,96747.75
2022-09-17T07:21:32.278Z,96749.56
2022-09-17T07:26:37.389Z,96745.44
2022-09-17T07:31:41.307Z,96749.41
2022-09-17T07:36:45.511Z,96749.28
2022-09-17T07:41:51.306Z,96754.69
2022-09-17T07:46:55.273Z,96758.59
2022-09-17T07:52:00.040Z,96764.34
2022-09-17T07:57:05.726Z,96771.19
2022-09-17T08:02:13.278Z,96773.09
2022-09-17T08:07:16.846Z,96766.34
2022-09-17T08:12:22.861Z,96764.88
2022-09-17T08:17:26.419Z,96778.22
2022-09-17T08:22:31.818Z,96783.19
2022-09-17T08:27:39.199Z,96769.63
2022-09-17T08:32:43.162Z,96765.88
2022-09-17T08:37:47.568Z,96782.34
2022-09-17T08:42:59.241Z,96799.19
2022-09-17T08:48:05.159Z,96813.31
2022-09-17T08:53:32.339Z,96803.47
2022-09-17T08:58:48.050Z,96808.31
2022-09-17T09:04:10.319Z,96797.66
2022-09-17T09:09:17.598Z,96808.03
2022-09-17T09:14:26.852Z,96804.19
2022-09-17T09:19:33.777Z,96800.06
2022-09-17T09:24:43.181Z,96798.72
2022-09-17T09:29:58.801Z,96805.88
2022-09-17T09:35:04.901Z,96818.69
2022-09-17T09:40:24.205Z,96811.84
2022-09-17T09:45:43.347Z,96820.44
2022-09-17T09:51:07.555Z,96821.75
2022-09-17T09:56:29.450Z,96815.41
2022-09-17T10:01:39.870Z,96795.88
2022-09-17T10:06:43.653Z,96807.19
2022-09-17T10:12:01.677Z,96805.44
2022-09-17T10:17:21.788Z,96812.25
2022-09-17T10:22:30.269Z,96800.31
2022-09-17T10:27:36.917Z,96805.63
2022-09-17T10:32:42.200Z,96830.81
2022-09-17T10:37:48.222Z,96845.81
2022-09-17T10:43:14.260Z,96869.38
2022-09-17T10:48:22.114Z,96822.78
2022-09-17T10:53:27.960Z,96809.91
2022-09-17T10:58:45.288Z,96797.13
2022-09-17T11:04:16.391Z,96794.03
2022-09-17T11:09:36.504Z,96794.91
2022-09-17T11:14:51.845Z,96799.50
2022-09-17T11:20:02.347Z,96805.28
2022-09-17T11:25:25.409Z,96874.72
2022-09-17T11:30:34.436Z,96872.00
2022-09-17T11:35:46.578Z,96840.91
2022-09-17T11:40:54.609Z,96826.03
2022-09-17T11:46:04.573Z,96823.69
2022-09-17T11:51:28.352Z,96811.59
2022-09-17T11:56:37.214Z,96801.94
2022-09-17T12:01:48.031Z,96798.66
2022-09-17T12:06:59.289Z,96804.78
2022-09-17T12:12:08.344Z,96787.53
2022-09-17T12:17:16.580Z,96794.53
2022-09-17T12:22:25.103Z,96770.38
2022-09-17T12:27:39.235Z,96764.41
2022-09-17T12:33:03.244Z,96756.72
2022-09-17T12:38:23.197Z,96758.06
2022-09-17T12:43:44.977Z,96791.28
2022-09-17T12:49:20.899Z,96783.56
2022-09-17T12:54:52.743Z,96762.38
2022-09-17T13:00:06.765Z,96758.69
2022-09-17T13:05:35.722Z,96756.56
2022-09-17T13:10:59.607Z,96747.91
2022-09-17T13:16:15.549Z,96748.41
2022-09-17T13:21:26.960Z,96744.00
2022-09-17T13:26:39.693Z,96737.84
2022-09-17T13:31:51.083Z,96739.50
2022-09-17T13:36:55.496Z,96744.25
2022-09-17T13:42:06.027Z,96755.63
2022-09-17T13:47:22.884Z,96743.66
2022-09-17T13:52:45.947Z,96752.50
2022-09-17T13:57:52.366Z,96756.22
2022-09-17T14:02:56.004Z,96748.19
2022-09-17T14:08:15.235Z,96735.56
2022-09-17T14:13:46.262Z,96737.91
2022-09-17T14:19:03.678Z,96745.75
2022-09-17T14:24:21.900Z,96744.25
2022-09-17T14:29:51.328Z,96739.72
2022-09-17T14:34:57.267Z,96762.97
2022-09-17T14:40:01.043Z,96780.16
2022-09-17T14:45:15.110Z,96784.59
2022-09-17T14:50:24.617Z,96771.06
2022-09-17T14:55:32.326Z,96764.69
2022-09-17T15:00:37.949Z,96761.59
2022-09-17T15:05:50.945Z,96740.53
2022-09-17T15:10:56.383Z,96748.50
2022-09-17T15:16:03.286Z,96737.66
2022-09-17T15:21:24.520Z,96730.88
2022-09-17T15:26:32.134Z,96732.09
2022-09-17T15:31:37.484Z,96726.84
2022-09-17T15:37:02.527Z,96730.00
2022-09-17T15:42:06.585Z,96725.16
2022-09-17T15:47:52.910Z,96725.28
2022-09-17T15:53:14.317Z,96730.31
2022-09-17T15:58:27.023Z,96718.66
2022-09-17T16:04:18.635Z,96734.84
2022-09-17T16:09:43.762Z,96725.66
2022-09-17T16:14:50.098Z,96731.06
2022-09-17T16:19:56.182Z,96741.38
2022-09-17T16:25:01.841Z,96730.00
2022-09-17T16:30:09.477Z,96735.41
2022-09-17T16:35:17.528Z,96745.03
2022-09-17T16:40:23.064Z,96747.31
2022-09-17T16:45:28.958Z,96754.19
2022-09-17T16:50:35.941Z,96769.50
2022-09-17T16:55:40.113Z,96818.94
2022-09-17T17:00:44.406Z,96809.66
2022-09-17T17:05:49.489Z,96788.06
2022-09-17T17:10:53.395Z,96783.22
2022-09-17T17:15:57.065Z,96768.31
2022-09-17T17:21:08.045Z,96760.53
2022-09-17T17:26:19.739Z,96773.50
2022-09-17T17:31:23.415Z,96779.47
2022-09-17T17:36:28.390Z,96778.53
2022-09-17T17:41:32.009Z,96773.13
2022-09-17T17:46:35.787Z,96772.94
2022-09-17T17:51:40.779Z,96779.09
2022-09-17T17:56:44.399Z,96788.03
2022-09-17T18:01:48.261Z,96792.56
2022-09-17T18:06:54.627Z,96796.09
2022-09-17T18:11:58.195Z,96794.97
2022-09-17T18:17:02.012Z,96814.28
2022-09-17T18:22:07.150Z,96821.66
2022-09-17T18:27:10.823Z,96809.63
2022-09-17T18:32:14.518Z,96816.56
2022-09-17T18:37:19.473Z,96820.28
2022-09-17T18:42:23.479Z,96821.91
2022-09-17T18:47:27.602Z,96818.94
2022-09-17T18:52:32.964Z,96814.34
2022-09-17T18:57:37.037Z,96815.16
2022-09-17T19:02:41.011Z,96832.13
2022-09-17T19:07:52.882Z,96828.53
2022-09-17T19:13:03.346Z,96836.28
2022-09-17T19:18:27.941Z,96840.28
2022-09-17T19:23:54.915Z,96839.31
2022-09-17T19:29:20.196Z,96827.28
2022-09-17T19:34:45.406Z,96842.91
2022-09-17T19:40:13.705Z,96840.50
2022-09-17T19:45:39.308Z,96846.94
2022-09-17T19:51:04.918Z,96842.59
2022-09-17T19:56:31.353Z,96853.03
2022-09-17T20:01:56.147Z,96853.09
2022-09-17T20:07:20.544Z,96853.13
2022-09-17T20:12:46.260Z,96864.63
2022-09-17T20:18:10.510Z,96861.09
2022-09-17T20:23:35.251Z,96855.56
2022-09-17T20:28:40.967Z,96863.38
2022-09-17T20:33:45.844Z,96859.91
2022-09-17T20:39:22.495Z,96852.38
2022-09-17T20:44:18.035Z,96864.63
2022-09-17T20:49:21.643Z,96853.75
2022-09-17T20:54:26.145Z,96852.66
2022-09-17T20:59:51.111Z,96846.88
2022-09-17T21:04:56.248Z,96851.97
2022-09-17T21:10:01.237Z,96858.16
2022-09-17T21:15:10.255Z,96860.69
2022-09-17T21:20:38.529Z,96874.94
2022-09-17T21:26:04.816Z,96876.69
2022-09-17T21:31:12.673Z,96892.63
2022-09-17T21:36:18.717Z,96879.56
2022-09-17T21:41:23.912Z,96889.41
2022-09-17T21:46:30.619Z,96895.81
2022-09-17T21:51:37.437Z,96889.16
2022-09-17T21:56:41.059Z,96878.06
2022-09-17T22:01:47.353Z,96874.34
2022-09-17T22:06:51.401Z,96871.38
2022-09-17T22:11:54.866Z,96880.50
2022-09-17T22:16:59.902Z,96885.34
2022-09-17T22:22:03.650Z,96887.72
2022-09-17T22:27:07.099Z,96893.00
2022-09-17T22:32:12.165Z,96885.03
2022-09-17T22:37:16.898Z,96882.00
2022-09-17T22:42:20.455Z,96888.66
2022-09-17T22:47:25.584Z,96896.25
2022-09-17T22:52:29.796Z,96889.00
2022-09-17T22:57:33.264Z,96889.63
2022-09-17T23:02:39.097Z,96892.19
2022-09-17T23:07:42.766Z,96904.56
2022-09-17T23:12:46.662Z,96907.81
2022-09-17T23:17:52.109Z,96911.00
2022-09-17T23:22:55.656Z,96903.41
2022-09-17T23:28:00.152Z,96905.00
2022-09-17T23:33:05.142Z,96905.00
2022-09-17T23:38:08.643Z,96900.28
2022-09-17T23:43:12.417Z,96905.41
2022-09-17T23:48:17.605Z,96913.16
2022-09-17T23:53:21.091Z,96903.47
2022-09-17T23:58:25.324Z,96912.47
